Gray Army Air Field
KGRF : now visible

Airfield :











YOU CAN JOIN US ON...

 
LOGIN :

Register | Disclaimer

   EN    FR    IT 

 









Legend :    VFR   Marginal VFR   IFR   Intensive IFR   Very Intensive IFR
Visi :
Ceiling :
>= 8 km
>= 3000ft
5 to 8 km
1000 to 3000 ft
1500m to 5 km
500 to 1000 ft
800 to 1500m
200 to 500 ft
< 800m
< 200 ft
Symbols :   Thunderstorms  Fog  Heavy snow  Heavy precipitations  Wind > 20 kt






- Airport Elevation : 300 ft


KGRF - Gray Army Air Field

CURRENT METAR :
  • 180558Z AUTO 14004KT 10SM SCT038 00/00 A3040 RMK AO2 SLP301 T00020002 10085 20002 53004 $

EXPIRED METARs :
  • 180458Z AUTO 00000KT 10SM CLR 02/02 A3039 RMK AO2 SLP298 T00180018 $
  • 180358Z AUTO 13003KT 10SM SCT046 02/02 A3039 RMK AO2 SLP298 T00170017 $

TAF TAF KGRF
Valid from the 18 at 05:00 until the 19 at 11:00 UTC


180503Z 1805/1911 VRB03KT 9999 SCT050 QNH3039INS
BECMG 1811/1812 VRB03KT 3200 BR SCT030 QNH3038INS
BECMG 1816/1817 03006KT 9999 NSW SKC QNH3032INS TX08/1823Z TNM02/1814Z



MET'MAP, your aeronautical weather chart ! - Copyright ORBIFLY December 2007 - Disclaimer

ORBIFLY MET'MAP TEAM :

Programming & Development : Alexandra Zaïnal
Concept & original design : Baudouin d'Aumeries
Assistance for programming : Marc-Olivier Méhu
Technical & hardware support : Manuel Goepfert

Contact : metmap@orbifly.com




SOURCES & CREDITS :

   NOAA       Earth
Advisory